createdAt,value
2017-03-31T00:00:06.083Z,1013.46
2017-03-31T00:00:46.838Z,1013.46
2017-03-31T00:01:27.311Z,1013.46
2017-03-31T00:02:07.990Z,1013.47
2017-03-31T00:02:48.674Z,1013.45
2017-03-31T00:03:29.330Z,1013.44
2017-03-31T00:04:09.926Z,1013.44
2017-03-31T00:04:50.601Z,1013.42
2017-03-31T00:05:31.317Z,1013.41
2017-03-31T00:06:12.047Z,1013.41
2017-03-31T00:06:52.611Z,1013.41
2017-03-31T00:07:33.293Z,1013.4
2017-03-31T00:08:14.030Z,1013.36
2017-03-31T00:08:54.756Z,1013.38
2017-03-31T00:09:35.348Z,1013.36
2017-03-31T00:10:16.037Z,1013.37
2017-03-31T00:10:56.821Z,1013.35
2017-03-31T00:11:37.579Z,1013.32
2017-03-31T00:12:18.229Z,1013.34
2017-03-31T00:12:58.879Z,1013.33
2017-03-31T00:13:39.546Z,1013.35
2017-03-31T00:14:20.201Z,1013.35
2017-03-31T00:15:00.978Z,1013.35
2017-03-31T00:15:41.713Z,1013.35
2017-03-31T00:16:23.372Z,1013.31
2017-03-31T00:17:04.015Z,1013.31
2017-03-31T00:17:44.683Z,1013.29
2017-03-31T00:18:25.346Z,1013.29
2017-03-31T00:19:07.017Z,1013.28
2017-03-31T00:19:47.606Z,1013.3
2017-03-31T00:20:29.313Z,1013.25
2017-03-31T00:21:10.009Z,1013.26
2017-03-31T00:21:51.686Z,1013.21
2017-03-31T00:22:32.263Z,1013.21
2017-03-31T00:23:12.938Z,1013.2
2017-03-31T00:23:53.643Z,1013.15
2017-03-31T00:24:34.288Z,1013.15
2017-03-31T00:25:14.847Z,1013.16
2017-03-31T00:25:55.540Z,1013.15
2017-03-31T00:26:36.276Z,1013.1
2017-03-31T00:27:16.998Z,1013.12
2017-03-31T00:27:57.666Z,1013.09
2017-03-31T00:28:39.331Z,1013.09
2017-03-31T00:29:19.984Z,1013.06
2017-03-31T00:30:00.634Z,1013.07
2017-03-31T00:30:41.288Z,1013.03
2017-03-31T00:31:21.941Z,1013.05
2017-03-31T00:32:04.641Z,1013.04
2017-03-31T00:32:46.313Z,1013.05
2017-03-31T00:33:26.967Z,1013.05
2017-03-31T00:34:07.704Z,1013.01
2017-03-31T00:34:49.375Z,1013.01
2017-03-31T00:35:30.029Z,1013.03
2017-03-31T00:36:12.736Z,1012.99
2017-03-31T00:36:53.383Z,1013
2017-03-31T00:37:34.037Z,1012.98
2017-03-31T00:38:15.713Z,1012.99
2017-03-31T00:39:02.546Z,1012.96
2017-03-31T00:39:43.161Z,1012.95
2017-03-31T00:40:23.921Z,1012.93
2017-03-31T00:41:04.508Z,1012.93
2017-03-31T00:41:56.142Z,1012.89
2017-03-31T00:42:41.555Z,1012.92
2017-03-31T00:43:22.191Z,1012.89
2017-03-31T00:44:02.776Z,1012.86
2017-03-31T00:44:44.395Z,1012.86
2017-03-31T00:45:25.072Z,1012.87
2017-03-31T00:46:07.762Z,1012.87
2017-03-31T00:46:48.356Z,1012.83
2017-03-31T00:47:29.035Z,1012.82
2017-03-31T00:48:10.665Z,1012.79
2017-03-31T00:48:51.306Z,1012.82
2017-03-31T00:49:31.924Z,1012.82
2017-03-31T00:50:12.579Z,1012.84
2017-03-31T00:50:53.247Z,1012.77
2017-03-31T00:51:33.909Z,1012.81
2017-03-31T00:52:14.482Z,1012.78
2017-03-31T00:52:55.187Z,1012.76
2017-03-31T00:53:36.794Z,1012.78
2017-03-31T00:54:17.437Z,1012.77
2017-03-31T00:54:58.026Z,1012.72
2017-03-31T00:55:38.703Z,1012.71
2017-03-31T00:56:20.326Z,1012.7
2017-03-31T00:57:00.986Z,1012.69
2017-03-31T00:57:41.632Z,1012.69
2017-03-31T00:58:22.278Z,1012.67
2017-03-31T00:59:03.962Z,1012.69
2017-03-31T00:59:46.666Z,1012.64
2017-03-31T01:00:29.265Z,1012.65
2017-03-31T01:01:10.943Z,1012.62
2017-03-31T01:01:52.617Z,1012.66
2017-03-31T01:02:33.197Z,1012.62
2017-03-31T01:03:14.798Z,1012.61
2017-03-31T01:03:55.386Z,1012.58
2017-03-31T01:04:36.048Z,1012.61
2017-03-31T01:05:16.629Z,1012.62
2017-03-31T01:05:57.312Z,1012.58
2017-03-31T01:06:38.000Z,1012.58
2017-03-31T01:07:18.648Z,1012.57
2017-03-31T01:07:59.210Z,1012.56
2017-03-31T01:08:39.818Z,1012.55
2017-03-31T01:09:20.504Z,1012.52
2017-03-31T01:10:01.157Z,1012.53
2017-03-31T01:10:41.739Z,1012.5
2017-03-31T01:11:23.394Z,1012.5
2017-03-31T01:12:04.039Z,1012.47
2017-03-31T01:12:44.703Z,1012.5
2017-03-31T01:13:25.355Z,1012.47
2017-03-31T01:14:06.005Z,1012.45
2017-03-31T01:14:46.656Z,1012.46
2017-03-31T01:15:27.304Z,1012.42
2017-03-31T01:16:07.965Z,1012.44
2017-03-31T01:16:48.526Z,1012.35
2017-03-31T01:17:29.193Z,1012.38
2017-03-31T01:18:09.821Z,1012.32
2017-03-31T01:18:50.387Z,1012.33
2017-03-31T01:19:31.027Z,1012.35
2017-03-31T01:20:11.676Z,1012.29
2017-03-31T01:20:52.253Z,1012.27
2017-03-31T01:21:33.906Z,1012.26
2017-03-31T01:22:15.618Z,1012.26
2017-03-31T01:22:56.234Z,1012.23
2017-03-31T01:23:36.888Z,1012.23
2017-03-31T01:24:17.549Z,1012.24
2017-03-31T01:24:58.186Z,1012.18
2017-03-31T01:25:38.840Z,1012.2
2017-03-31T01:26:19.508Z,1012.18
2017-03-31T01:27:00.143Z,1012.16
2017-03-31T01:27:40.783Z,1012.18
2017-03-31T01:28:21.411Z,1012.14
2017-03-31T01:29:02.000Z,1012.15
2017-03-31T01:29:42.651Z,1012.16
2017-03-31T01:30:23.243Z,1012.11
2017-03-31T01:31:04.927Z,1012.14
2017-03-31T01:31:46.561Z,1012.13
2017-03-31T01:32:27.232Z,1012.16
2017-03-31T01:33:07.856Z,1012.14
2017-03-31T01:33:48.514Z,1012.14
2017-03-31T01:34:30.211Z,1012.15
2017-03-31T01:35:11.879Z,1012.09
2017-03-31T01:35:54.478Z,1012.08
2017-03-31T01:36:36.250Z,1012.06
2017-03-31T01:37:16.828Z,1012.08
2017-03-31T01:37:58.448Z,1012.08
2017-03-31T01:38:39.136Z,1012.03
2017-03-31T01:39:19.789Z,1012.02
2017-03-31T01:40:00.415Z,1012.01
2017-03-31T01:40:41.051Z,1012.01
2017-03-31T01:41:21.762Z,1012.01
2017-03-31T01:42:02.384Z,1011.97
2017-03-31T01:42:44.062Z,1011.98
2017-03-31T01:43:24.718Z,1011.99
2017-03-31T01:44:05.365Z,1011.96
2017-03-31T01:44:46.021Z,1011.97
2017-03-31T01:45:26.675Z,1011.97
2017-03-31T01:46:07.329Z,1011.93
2017-03-31T01:46:48.010Z,1011.94
2017-03-31T01:47:28.638Z,1011.94
2017-03-31T01:48:09.291Z,1011.88
2017-03-31T01:48:49.952Z,1011.87
2017-03-31T01:49:30.593Z,1011.86
2017-03-31T01:50:11.263Z,1011.88
2017-03-31T01:50:51.897Z,1011.84
2017-03-31T01:51:32.549Z,1011.85
2017-03-31T01:52:13.225Z,1011.82
2017-03-31T01:52:53.857Z,1011.8
2017-03-31T01:53:34.511Z,1011.82
2017-03-31T01:54:15.169Z,1011.78
2017-03-31T01:54:55.816Z,1011.8
2017-03-31T01:55:36.473Z,1011.8
2017-03-31T01:56:17.048Z,1011.76
2017-03-31T01:56:57.624Z,1011.75
2017-03-31T01:57:38.222Z,1011.76
2017-03-31T01:58:18.876Z,1011.72
2017-03-31T01:58:59.454Z,1011.72
2017-03-31T01:59:40.158Z,1011.77
2017-03-31T02:00:20.839Z,1011.74
2017-03-31T02:01:01.481Z,1011.75
2017-03-31T02:01:42.052Z,1011.73
2017-03-31T02:02:22.663Z,1011.73
2017-03-31T02:03:03.357Z,1011.75
2017-03-31T02:03:43.996Z,1011.72
2017-03-31T02:04:24.599Z,1011.68
2017-03-31T02:05:05.286Z,1011.7
2017-03-31T02:05:45.969Z,1011.72
2017-03-31T02:06:26.610Z,1011.66
2017-03-31T02:07:07.267Z,1011.7
2017-03-31T02:07:47.914Z,1011.65
2017-03-31T02:08:28.565Z,1011.63
2017-03-31T02:09:09.239Z,1011.64
2017-03-31T02:09:49.873Z,1011.63
2017-03-31T02:10:30.529Z,1011.64
2017-03-31T02:11:11.102Z,1011.63
2017-03-31T02:11:51.815Z,1011.63
2017-03-31T02:12:32.485Z,1011.61
2017-03-31T02:13:13.142Z,1011.61
2017-03-31T02:13:53.723Z,1011.6
2017-03-31T02:14:34.399Z,1011.62
2017-03-31T02:15:15.105Z,1011.54
2017-03-31T02:15:55.754Z,1011.57
2017-03-31T02:16:36.342Z,1011.54
2017-03-31T02:17:16.956Z,1011.58
2017-03-31T02:17:57.610Z,1011.54
2017-03-31T02:18:38.240Z,1011.52
2017-03-31T02:19:18.913Z,1011.55
2017-03-31T02:19:59.564Z,1011.54
2017-03-31T02:20:40.134Z,1011.52
2017-03-31T02:21:20.778Z,1011.49
2017-03-31T02:22:01.418Z,1011.5
2017-03-31T02:22:42.007Z,1011.46
2017-03-31T02:23:22.622Z,1011.5
2017-03-31T02:24:03.277Z,1011.45
2017-03-31T02:24:43.852Z,1011.42
2017-03-31T02:25:24.485Z,1011.47
2017-03-31T02:26:05.134Z,1011.41
2017-03-31T02:26:45.786Z,1011.43
2017-03-31T02:27:26.440Z,1011.43
2017-03-31T02:28:07.090Z,1011.4
2017-03-31T02:28:47.746Z,1011.43
2017-03-31T02:29:28.397Z,1011.42
2017-03-31T02:30:09.048Z,1011.41
2017-03-31T02:30:49.702Z,1011.4
2017-03-31T02:31:30.265Z,1011.38
2017-03-31T02:32:10.864Z,1011.39
2017-03-31T02:32:51.453Z,1011.37
2017-03-31T02:33:32.101Z,1011.39
2017-03-31T02:34:12.686Z,1011.37
2017-03-31T02:34:53.379Z,1011.36
2017-03-31T02:35:34.082Z,1011.38
2017-03-31T02:36:14.726Z,1011.34
2017-03-31T02:36:55.319Z,1011.36
2017-03-31T02:37:35.937Z,1011.36
2017-03-31T02:38:16.571Z,1011.33
2017-03-31T02:38:57.130Z,1011.32
2017-03-31T02:39:38.192Z,1011.33
2017-03-31T02:40:18.840Z,1011.33
2017-03-31T02:40:59.415Z,1011.29
2017-03-31T02:41:40.047Z,1011.26
2017-03-31T02:42:20.700Z,1011.29
2017-03-31T02:43:01.256Z,1011.29
2017-03-31T02:43:41.868Z,1011.28
2017-03-31T02:44:22.457Z,1011.26
2017-03-31T02:45:03.102Z,1011.25
2017-03-31T02:45:43.679Z,1011.23
2017-03-31T02:46:24.268Z,1011.21
2017-03-31T02:47:04.850Z,1011.23
2017-03-31T02:47:45.512Z,1011.21
2017-03-31T02:48:26.174Z,1011.19
2017-03-31T02:49:06.823Z,1011.2
2017-03-31T02:49:47.477Z,1011.21
2017-03-31T02:50:28.129Z,1011.17
2017-03-31T02:51:08.780Z,1011.15
2017-03-31T02:51:49.436Z,1011.11
2017-03-31T02:52:30.081Z,1011.13
2017-03-31T02:53:10.762Z,1011.11
2017-03-31T02:53:51.391Z,1011.11
2017-03-31T02:54:32.045Z,1011.12
2017-03-31T02:55:13.721Z,1011.13
2017-03-31T02:55:54.378Z,1011.1
2017-03-31T02:56:35.047Z,1011.09
2017-03-31T02:57:15.773Z,1011.1
2017-03-31T02:57:58.376Z,1011.11
2017-03-31T02:58:39.025Z,1011.04
2017-03-31T02:59:19.704Z,1011.08
2017-03-31T03:00:00.327Z,1011.06
2017-03-31T03:00:40.986Z,1011.05
2017-03-31T03:01:21.633Z,1011
2017-03-31T03:02:02.215Z,1011.01
2017-03-31T03:02:42.801Z,1010.99
2017-03-31T03:03:23.501Z,1010.97
2017-03-31T03:04:04.149Z,1010.95
2017-03-31T03:04:44.706Z,1010.93
2017-03-31T03:05:25.306Z,1010.91
2017-03-31T03:06:05.908Z,1010.91
2017-03-31T03:06:46.557Z,1010.9
2017-03-31T03:07:27.122Z,1010.89
2017-03-31T03:08:07.760Z,1010.91
2017-03-31T03:08:48.407Z,1010.89
2017-03-31T03:09:28.988Z,1010.87
2017-03-31T03:10:09.629Z,1010.85
2017-03-31T03:10:50.263Z,1010.85
2017-03-31T03:11:30.827Z,1010.82
2017-03-31T03:12:11.479Z,1010.82
2017-03-31T03:12:52.121Z,1010.82
2017-03-31T03:13:32.681Z,1010.81
2017-03-31T03:14:13.293Z,1010.78
2017-03-31T03:14:53.882Z,1010.76
2017-03-31T03:15:34.524Z,1010.75
2017-03-31T03:16:15.100Z,1010.76
2017-03-31T03:16:55.690Z,1010.74
2017-03-31T03:17:36.359Z,1010.76
2017-03-31T03:18:17.012Z,1010.72
2017-03-31T03:18:57.649Z,1010.73
2017-03-31T03:19:38.304Z,1010.7
2017-03-31T03:20:18.960Z,1010.71
2017-03-31T03:20:59.606Z,1010.68
2017-03-31T03:21:40.261Z,1010.66
2017-03-31T03:22:20.956Z,1010.65
2017-03-31T03:23:01.527Z,1010.65
2017-03-31T03:23:42.159Z,1010.64
2017-03-31T03:24:22.803Z,1010.65
2017-03-31T03:25:03.384Z,1010.62
2017-03-31T03:25:44.017Z,1010.65
2017-03-31T03:26:24.662Z,1010.6
2017-03-31T03:27:05.228Z,1010.59
2017-03-31T03:27:45.815Z,1010.58
2017-03-31T03:28:26.420Z,1010.58
2017-03-31T03:29:07.069Z,1010.55
2017-03-31T03:29:47.644Z,1010.54
2017-03-31T03:30:28.229Z,1010.53
2017-03-31T03:31:08.821Z,1010.5
2017-03-31T03:31:49.477Z,1010.51
2017-03-31T03:32:30.045Z,1010.5
2017-03-31T03:33:10.628Z,1010.5
2017-03-31T03:33:51.244Z,1010.46
2017-03-31T03:34:31.890Z,1010.5
2017-03-31T03:35:12.483Z,1010.49
2017-03-31T03:35:53.139Z,1010.45
2017-03-31T03:36:33.743Z,1010.45
2017-03-31T03:37:14.396Z,1010.41
2017-03-31T03:37:55.052Z,1010.4
2017-03-31T03:38:35.709Z,1010.43
2017-03-31T03:39:16.349Z,1010.41
2017-03-31T03:39:57.010Z,1010.37
2017-03-31T03:40:37.659Z,1010.36
2017-03-31T03:41:18.315Z,1010.38
2017-03-31T03:41:59.010Z,1010.34
2017-03-31T03:42:39.621Z,1010.31
2017-03-31T03:43:20.273Z,1010.35
2017-03-31T03:44:00.923Z,1010.32
2017-03-31T03:44:41.576Z,1010.31
2017-03-31T03:45:22.234Z,1010.29
2017-03-31T03:46:02.886Z,1010.27
2017-03-31T03:46:43.531Z,1010.29
2017-03-31T03:47:24.103Z,1010.27
2017-03-31T03:48:04.798Z,1010.27
2017-03-31T03:48:45.398Z,1010.27
2017-03-31T03:49:26.046Z,1010.24
2017-03-31T03:50:06.623Z,1010.22
2017-03-31T03:50:47.289Z,1010.24
2017-03-31T03:51:27.902Z,1010.24
2017-03-31T03:52:08.548Z,1010.27
2017-03-31T03:52:49.204Z,1010.27
2017-03-31T03:53:29.861Z,1010.22
2017-03-31T03:54:10.521Z,1010.23
2017-03-31T03:54:51.159Z,1010.21
2017-03-31T03:55:31.817Z,1010.18
2017-03-31T03:56:12.465Z,1010.19
2017-03-31T03:56:53.039Z,1010.17
2017-03-31T03:57:33.638Z,1010.17
2017-03-31T03:58:14.231Z,1010.19
2017-03-31T03:58:54.873Z,1010.2
2017-03-31T03:59:35.439Z,1010.16
2017-03-31T04:00:16.046Z,1010.18
2017-03-31T04:00:56.636Z,1010.1
2017-03-31T04:01:37.275Z,1010.09
2017-03-31T04:02:17.931Z,1010.06
2017-03-31T04:02:58.585Z,1010.06
2017-03-31T04:03:39.236Z,1010.07
2017-03-31T04:04:19.895Z,1010.04
2017-03-31T04:05:00.539Z,1010.05
2017-03-31T04:05:41.199Z,1010.01
2017-03-31T04:06:21.872Z,1010.04
2017-03-31T04:07:02.422Z,1010
2017-03-31T04:07:43.005Z,1009.99
2017-03-31T04:08:23.610Z,1009.99
2017-03-31T04:09:04.367Z,1010
2017-03-31T04:09:44.940Z,1009.96
2017-03-31T04:10:25.635Z,1009.96
2017-03-31T04:11:06.329Z,1009.95
2017-03-31T04:11:46.974Z,1009.98
2017-03-31T04:12:27.631Z,1009.98
2017-03-31T04:13:08.286Z,1009.92
2017-03-31T04:13:48.925Z,1009.9
2017-03-31T04:14:29.584Z,1009.88
2017-03-31T04:15:10.234Z,1009.88
2017-03-31T04:15:50.888Z,1009.87
2017-03-31T04:16:31.546Z,1009.85
2017-03-31T04:17:12.196Z,1009.84
2017-03-31T04:17:52.851Z,1009.82
2017-03-31T04:18:33.500Z,1009.84
2017-03-31T04:19:14.152Z,1009.77
2017-03-31T04:19:54.809Z,1009.78
2017-03-31T04:20:35.461Z,1009.77
2017-03-31T04:21:16.114Z,1009.76
2017-03-31T04:21:56.761Z,1009.76
2017-03-31T04:22:37.415Z,1009.75
2017-03-31T04:23:18.066Z,1009.69
2017-03-31T04:23:58.724Z,1009.73
2017-03-31T04:24:39.379Z,1009.74
2017-03-31T04:25:20.031Z,1009.72
2017-03-31T04:26:00.685Z,1009.71
2017-03-31T04:26:41.263Z,1009.73
2017-03-31T04:27:21.881Z,1009.7
2017-03-31T04:28:02.550Z,1009.72
2017-03-31T04:28:43.189Z,1009.68
2017-03-31T04:29:23.841Z,1009.73
2017-03-31T04:30:04.522Z,1009.71
2017-03-31T04:30:45.150Z,1009.72
2017-03-31T04:31:25.804Z,1009.69
2017-03-31T04:32:06.454Z,1009.7
2017-03-31T04:32:47.111Z,1009.68
2017-03-31T04:33:28.782Z,1009.72
2017-03-31T04:34:09.445Z,1009.7
2017-03-31T04:34:50.092Z,1009.68
2017-03-31T04:35:30.746Z,1009.71
2017-03-31T04:36:11.407Z,1009.68
2017-03-31T04:36:51.985Z,1009.69
2017-03-31T04:37:32.605Z,1009.65
2017-03-31T04:38:13.252Z,1009.65
2017-03-31T04:38:53.831Z,1009.6
2017-03-31T04:39:34.469Z,1009.62
2017-03-31T04:40:15.108Z,1009.6
2017-03-31T04:40:56.916Z,1009.59
2017-03-31T04:41:37.631Z,1009.63
2017-03-31T04:42:18.398Z,1009.59
2017-03-31T04:42:58.979Z,1009.62
2017-03-31T04:43:39.607Z,1009.58
2017-03-31T04:44:20.253Z,1009.55
2017-03-31T04:45:00.827Z,1009.55
2017-03-31T04:45:41.461Z,1009.58
2017-03-31T04:46:22.100Z,1009.57
2017-03-31T04:47:02.665Z,1009.57
2017-03-31T04:47:43.266Z,1009.61
2017-03-31T04:48:23.901Z,1009.54
2017-03-31T04:49:04.516Z,1009.55
2017-03-31T04:49:45.091Z,1009.51
2017-03-31T04:50:25.675Z,1009.54
2017-03-31T04:51:06.275Z,1009.53
2017-03-31T04:51:46.927Z,1009.48
2017-03-31T04:52:27.488Z,1009.51
2017-03-31T04:53:08.132Z,1009.49
2017-03-31T04:53:48.783Z,1009.51
2017-03-31T04:54:29.357Z,1009.5
2017-03-31T04:55:09.985Z,1009.48
2017-03-31T04:55:50.637Z,1009.48
2017-03-31T04:56:31.218Z,1009.45
2017-03-31T04:57:11.848Z,1009.46
2017-03-31T04:57:52.493Z,1009.45
2017-03-31T04:58:33.162Z,1009.47
2017-03-31T04:59:13.801Z,1009.43
2017-03-31T04:59:54.462Z,1009.43
2017-03-31T05:00:35.110Z,1009.43
2017-03-31T05:01:15.772Z,1009.47
2017-03-31T05:01:56.413Z,1009.42
2017-03-31T05:02:36.982Z,1009.43
2017-03-31T05:03:17.589Z,1009.45
2017-03-31T05:03:58.270Z,1009.41
2017-03-31T05:04:38.925Z,1009.41
2017-03-31T05:05:19.503Z,1009.41
2017-03-31T05:06:00.169Z,1009.38
2017-03-31T05:06:40.769Z,1009.39
2017-03-31T05:07:21.426Z,1009.35
2017-03-31T05:08:02.202Z,1009.41
2017-03-31T05:08:42.908Z,1009.38
2017-03-31T05:09:23.594Z,1009.35
2017-03-31T05:10:04.234Z,1009.36
2017-03-31T05:10:44.828Z,1009.36
2017-03-31T05:11:25.493Z,1009.28
2017-03-31T05:12:06.097Z,1009.33
2017-03-31T05:12:46.760Z,1009.34
2017-03-31T05:13:27.413Z,1009.33
2017-03-31T05:14:08.076Z,1009.31
2017-03-31T05:14:48.730Z,1009.33
2017-03-31T05:15:29.370Z,1009.31
2017-03-31T05:16:10.012Z,1009.28
2017-03-31T05:16:50.675Z,1009.27
2017-03-31T05:17:31.319Z,1009.29
2017-03-31T05:18:11.899Z,1009.31
2017-03-31T05:18:52.586Z,1009.28
2017-03-31T05:19:33.183Z,1009.26
2017-03-31T05:20:13.829Z,1009.26
2017-03-31T05:20:54.397Z,1009.24
2017-03-31T05:21:34.996Z,1009.25
2017-03-31T05:22:15.592Z,1009.26
2017-03-31T05:22:56.225Z,1009.27
2017-03-31T05:23:36.904Z,1009.26
2017-03-31T05:24:17.534Z,1009.29
2017-03-31T05:24:58.199Z,1009.28
2017-03-31T05:25:38.837Z,1009.31
2017-03-31T05:26:19.496Z,1009.29
2017-03-31T05:27:00.061Z,1009.31
2017-03-31T05:27:40.777Z,1009.28
2017-03-31T05:28:21.455Z,1009.3
2017-03-31T05:29:02.106Z,1009.28
2017-03-31T05:29:42.675Z,1009.3
2017-03-31T05:30:23.256Z,1009.29
2017-03-31T05:31:03.869Z,1009.28
2017-03-31T05:31:44.510Z,1009.26
2017-03-31T05:32:25.101Z,1009.24
2017-03-31T05:33:05.734Z,1009.31
2017-03-31T05:33:46.379Z,1009.31
2017-03-31T05:34:26.950Z,1009.23
2017-03-31T05:35:07.582Z,1009.23
2017-03-31T05:35:48.230Z,1009.28
2017-03-31T05:36:28.817Z,1009.25
2017-03-31T05:37:09.424Z,1009.22
2017-03-31T05:37:50.085Z,1009.24
2017-03-31T05:38:30.738Z,1009.25
2017-03-31T05:39:11.390Z,1009.21
2017-03-31T05:39:52.041Z,1009.19
2017-03-31T05:40:32.692Z,1009.16
2017-03-31T05:41:13.347Z,1009.14
2017-03-31T05:41:54.002Z,1009.2
2017-03-31T05:42:34.654Z,1009.16
2017-03-31T05:43:15.338Z,1009.11
2017-03-31T05:43:55.957Z,1009.16
2017-03-31T05:44:36.615Z,1009.13
2017-03-31T05:45:17.267Z,1009.11
2017-03-31T05:45:57.913Z,1009.1
2017-03-31T05:46:38.574Z,1009.1
2017-03-31T05:47:19.221Z,1009.08
2017-03-31T05:47:59.870Z,1009.09
2017-03-31T05:48:40.525Z,1009.07
2017-03-31T05:49:21.177Z,1009.07
2017-03-31T05:50:01.831Z,1009.06
2017-03-31T05:50:42.403Z,1009.07
2017-03-31T05:51:22.991Z,1009.07
2017-03-31T05:52:03.641Z,1009.03
2017-03-31T05:52:44.291Z,1009
2017-03-31T05:53:24.948Z,1009.02
2017-03-31T05:54:05.617Z,1009
2017-03-31T05:54:46.260Z,1008.99
2017-03-31T05:55:26.905Z,1008.97
2017-03-31T05:56:07.557Z,1008.96
2017-03-31T05:56:48.231Z,1008.99
2017-03-31T05:57:28.909Z,1008.97
2017-03-31T05:58:09.569Z,1008.96
2017-03-31T05:58:50.217Z,1008.95
2017-03-31T05:59:30.868Z,1008.98
2017-03-31T06:00:11.525Z,1008.98
2017-03-31T06:00:52.174Z,1008.97
2017-03-31T06:01:32.832Z,1008.93
2017-03-31T06:02:13.480Z,1008.95
2017-03-31T06:02:54.143Z,1008.92
2017-03-31T06:03:34.784Z,1008.96
2017-03-31T06:04:15.454Z,1008.92
2017-03-31T06:04:57.117Z,1008.91
2017-03-31T06:05:37.775Z,1008.95
2017-03-31T06:06:18.430Z,1008.91
2017-03-31T06:06:59.078Z,1008.89
2017-03-31T06:07:40.148Z,1008.91
2017-03-31T06:08:22.743Z,1008.89
2017-03-31T06:09:03.401Z,1008.86
2017-03-31T06:09:44.038Z,1008.88
2017-03-31T06:10:24.706Z,1008.89
2017-03-31T06:11:06.579Z,1008.85
2017-03-31T06:11:47.222Z,1008.89
2017-03-31T06:12:27.855Z,1008.89
2017-03-31T06:13:08.455Z,1008.87
2017-03-31T06:13:49.500Z,1008.91
2017-03-31T06:14:30.107Z,1008.87
2017-03-31T06:15:11.726Z,1008.87
2017-03-31T06:15:52.332Z,1008.88
2017-03-31T06:16:32.921Z,1008.9
2017-03-31T06:17:13.582Z,1008.9
2017-03-31T06:17:54.169Z,1008.87
2017-03-31T06:18:34.852Z,1008.88
2017-03-31T06:19:15.462Z,1008.86
2017-03-31T06:19:56.102Z,1008.87
2017-03-31T06:20:36.663Z,1008.89
2017-03-31T06:21:17.264Z,1008.88
2017-03-31T06:21:57.847Z,1008.85
2017-03-31T06:22:39.530Z,1008.83
2017-03-31T06:23:20.127Z,1008.82
2017-03-31T06:24:00.813Z,1008.79
2017-03-31T06:24:41.491Z,1008.81
2017-03-31T06:25:22.144Z,1008.81
2017-03-31T06:26:02.715Z,1008.8
2017-03-31T06:26:43.401Z,1008.79
2017-03-31T06:27:24.010Z,1008.81
2017-03-31T06:28:04.663Z,1008.81
2017-03-31T06:28:45.296Z,1008.82
2017-03-31T06:29:25.952Z,1008.79
2017-03-31T06:30:06.620Z,1008.8
2017-03-31T06:30:47.265Z,1008.79
2017-03-31T06:31:27.926Z,1008.76
2017-03-31T06:32:08.568Z,1008.75
2017-03-31T06:32:49.131Z,1008.77
2017-03-31T06:33:29.729Z,1008.73
2017-03-31T06:34:10.320Z,1008.78
2017-03-31T06:34:52.002Z,1008.73
2017-03-31T06:35:32.571Z,1008.75
2017-03-31T06:36:13.154Z,1008.72
2017-03-31T06:36:53.751Z,1008.72
2017-03-31T06:37:34.400Z,1008.73
2017-03-31T06:38:15.075Z,1008.76
2017-03-31T06:38:55.709Z,1008.75
2017-03-31T06:39:36.374Z,1008.72
2017-03-31T06:40:17.013Z,1008.69
2017-03-31T06:40:57.666Z,1008.71
2017-03-31T06:41:38.319Z,1008.69
2017-03-31T06:42:18.910Z,1008.72
2017-03-31T06:42:59.523Z,1008.71
2017-03-31T06:43:40.178Z,1008.74
2017-03-31T06:44:20.752Z,1008.73
2017-03-31T06:45:01.417Z,1008.72
2017-03-31T06:45:42.040Z,1008.72
2017-03-31T06:46:22.629Z,1008.76
2017-03-31T06:47:03.241Z,1008.73
2017-03-31T06:47:44.009Z,1008.68
2017-03-31T06:48:24.587Z,1008.71
2017-03-31T06:49:05.259Z,1008.71
2017-03-31T06:49:45.866Z,1008.73
2017-03-31T06:50:26.501Z,1008.71
2017-03-31T06:51:07.208Z,1008.72
2017-03-31T06:51:47.870Z,1008.73
2017-03-31T06:52:28.465Z,1008.74
2017-03-31T06:53:09.062Z,1008.71
2017-03-31T06:53:49.664Z,1008.7
2017-03-31T06:54:30.249Z,1008.68
2017-03-31T06:55:10.872Z,1008.68
2017-03-31T06:55:51.545Z,1008.7
2017-03-31T06:56:33.199Z,1008.65
2017-03-31T06:57:13.804Z,1008.7
2017-03-31T06:57:54.402Z,1008.64
2017-03-31T06:58:35.077Z,1008.67
2017-03-31T06:59:15.708Z,1008.67
2017-03-31T06:59:56.367Z,1008.65
2017-03-31T07:00:37.015Z,1008.65
2017-03-31T07:01:17.676Z,1008.64
2017-03-31T07:01:58.316Z,1008.63
2017-03-31T07:02:38.969Z,1008.6
2017-03-31T07:03:19.628Z,1008.6
2017-03-31T07:04:00.389Z,1008.62
2017-03-31T07:04:41.042Z,1008.6
2017-03-31T07:05:21.695Z,1008.58
2017-03-31T07:06:02.344Z,1008.59
2017-03-31T07:06:42.996Z,1008.57
2017-03-31T07:07:23.649Z,1008.54
2017-03-31T07:08:04.296Z,1008.55
2017-03-31T07:08:44.954Z,1008.51
2017-03-31T07:09:25.607Z,1008.51
2017-03-31T07:10:07.286Z,1008.51
2017-03-31T07:10:47.935Z,1008.5
2017-03-31T07:11:28.586Z,1008.48
2017-03-31T07:12:09.205Z,1008.51
2017-03-31T07:12:49.848Z,1008.55
2017-03-31T07:13:30.443Z,1008.49
2017-03-31T07:14:11.101Z,1008.5
2017-03-31T07:14:51.701Z,1008.53
2017-03-31T07:15:32.368Z,1008.51
2017-03-31T07:16:12.963Z,1008.5
2017-03-31T07:16:53.608Z,1008.48
2017-03-31T07:17:34.271Z,1008.48
2017-03-31T07:18:14.918Z,1008.48
2017-03-31T07:18:55.565Z,1008.48
2017-03-31T07:19:36.215Z,1008.48
2017-03-31T07:20:16.877Z,1008.48
2017-03-31T07:20:57.531Z,1008.48
2017-03-31T07:21:39.201Z,1008.49
2017-03-31T07:22:19.794Z,1008.41
2017-03-31T07:23:00.364Z,1008.45
2017-03-31T07:23:41.100Z,1008.44
2017-03-31T07:24:21.707Z,1008.41
2017-03-31T07:25:02.351Z,1008.46
2017-03-31T07:25:42.971Z,1008.46
2017-03-31T07:26:23.688Z,1008.44
2017-03-31T07:27:04.302Z,1008.46
2017-03-31T07:27:44.878Z,1008.41
2017-03-31T07:28:25.474Z,1008.42
2017-03-31T07:29:06.070Z,1008.39
2017-03-31T07:29:46.639Z,1008.42
2017-03-31T07:30:31.826Z,1008.41
2017-03-31T07:31:12.416Z,1008.35
2017-03-31T07:31:53.018Z,1008.39
2017-03-31T07:32:33.583Z,1008.41
2017-03-31T07:33:14.179Z,1008.38
2017-03-31T07:33:54.774Z,1008.4
2017-03-31T07:34:35.612Z,1008.34
2017-03-31T07:35:16.306Z,1008.41
2017-03-31T07:35:56.896Z,1008.33
2017-03-31T07:36:37.474Z,1008.37
2017-03-31T07:37:18.060Z,1008.34
2017-03-31T07:37:58.663Z,1008.34
2017-03-31T07:38:39.255Z,1008.31
2017-03-31T07:39:19.851Z,1008.31
2017-03-31T07:40:00.441Z,1008.27
2017-03-31T07:40:41.017Z,1008.29
2017-03-31T07:41:21.599Z,1008.26
2017-03-31T07:42:03.180Z,1008.27
2017-03-31T07:42:44.753Z,1008.28
2017-03-31T07:43:25.399Z,1008.26
2017-03-31T07:44:05.979Z,1008.23
2017-03-31T07:44:47.587Z,1008.23
2017-03-31T07:45:28.304Z,1008.21
2017-03-31T07:46:09.936Z,1008.23
2017-03-31T07:46:55.351Z,1008.2
2017-03-31T07:47:35.930Z,1008.17
2017-03-31T07:48:16.630Z,1008.18
2017-03-31T07:48:57.318Z,1008.17
2017-03-31T07:49:38.164Z,1008.18
2017-03-31T07:50:18.798Z,1008.17
2017-03-31T07:50:59.422Z,1008.16
2017-03-31T07:51:40.000Z,1008.17
2017-03-31T07:52:20.714Z,1008.2
2017-03-31T07:53:01.449Z,1008.14
2017-03-31T07:53:42.097Z,1008.17
2017-03-31T07:54:22.729Z,1008.16
2017-03-31T07:55:03.422Z,1008.1
2017-03-31T07:55:44.078Z,1008.11
2017-03-31T07:56:24.693Z,1008.12
2017-03-31T07:57:05.349Z,1008.07
2017-03-31T07:57:47.158Z,1008.09
2017-03-31T07:58:28.345Z,1008.11
2017-03-31T07:59:11.125Z,1008.1
2017-03-31T07:59:52.243Z,1008.08
2017-03-31T08:00:32.949Z,1008.11
2017-03-31T08:01:14.646Z,1008.1
2017-03-31T08:01:55.276Z,1008.1
2017-03-31T08:02:35.975Z,1008.09
2017-03-31T08:03:16.583Z,1008.09
2017-03-31T08:03:57.173Z,1008.11
2017-03-31T08:04:37.826Z,1008.1
2017-03-31T08:05:18.498Z,1008.09
2017-03-31T08:05:59.071Z,1008.09
2017-03-31T08:06:39.691Z,1008.08
2017-03-31T08:07:20.337Z,1008.13
2017-03-31T08:08:01.379Z,1008.11
2017-03-31T08:08:42.569Z,1008.13
2017-03-31T08:09:23.485Z,1008.1
2017-03-31T08:10:04.290Z,1008.12
2017-03-31T08:10:44.993Z,1008.1
2017-03-31T08:11:25.773Z,1008.13
2017-03-31T08:12:06.394Z,1008.15
2017-03-31T08:12:47.993Z,1008.12
2017-03-31T08:13:29.586Z,1008.14
2017-03-31T08:14:10.297Z,1008.13
2017-03-31T08:14:50.859Z,1008.15